sensor_id;sensor_type;location;lat;lon;timestamp;temperature;humidity
14349;DHT22;7258;50.376;8.742;2023-11-18T00:00:37;0.60;99.90
14349;DHT22;7258;50.376;8.742;2023-11-18T00:02:40;0.60;99.90
14349;DHT22;7258;50.376;8.742;2023-11-18T00:04:44;0.60;99.90
14349;DHT22;7258;50.376;8.742;2023-11-18T00:06:47;0.60;99.90
14349;DHT22;7258;50.376;8.742;2023-11-18T00:08:50;0.60;99.90
14349;DHT22;7258;50.376;8.742;2023-11-18T00:10:53;0.60;99.90
14349;DHT22;7258;50.376;8.742;2023-11-18T00:12:56;0.60;99.90
14349;DHT22;7258;50.376;8.742;2023-11-18T00:14:59;0.60;99.90
14349;DHT22;7258;50.376;8.742;2023-11-18T00:17:02;0.70;99.90
14349;DHT22;7258;50.376;8.742;2023-11-18T00:19:06;0.70;99.90
14349;DHT22;7258;50.376;8.742;2023-11-18T00:21:10;0.70;99.90
14349;DHT22;7258;50.376;8.742;2023-11-18T00:23:14;0.70;99.90
14349;DHT22;7258;50.376;8.742;2023-11-18T00:25:22;0.70;99.90
14349;DHT22;7258;50.376;8.742;2023-11-18T00:27:25;0.60;99.90
14349;DHT22;7258;50.376;8.742;2023-11-18T00:29:28;0.50;99.90
14349;DHT22;7258;50.376;8.742;2023-11-18T00:31:30;0.50;99.90
14349;DHT22;7258;50.376;8.742;2023-11-18T00:33:35;0.40;99.90
14349;DHT22;7258;50.376;8.742;2023-11-18T00:35:38;0.30;99.90
14349;DHT22;7258;50.376;8.742;2023-11-18T00:37:41;0.30;99.90
14349;DHT22;7258;50.376;8.742;2023-11-18T00:39:43;0.20;99.90
14349;DHT22;7258;50.376;8.742;2023-11-18T00:41:45;0.20;99.90
14349;DHT22;7258;50.376;8.742;2023-11-18T00:43:48;0.20;99.90
14349;DHT22;7258;50.376;8.742;2023-11-18T00:45:53;0.10;99.90
14349;DHT22;7258;50.376;8.742;2023-11-18T00:47:55;0.10;99.90
14349;DHT22;7258;50.376;8.742;2023-11-18T00:49:59;0.20;99.90
14349;DHT22;7258;50.376;8.742;2023-11-18T00:52:04;0.30;99.90
14349;DHT22;7258;50.376;8.742;2023-11-18T00:54:07;0.40;99.90
14349;DHT22;7258;50.376;8.742;2023-11-18T00:56:15;0.50;99.90
14349;DHT22;7258;50.376;8.742;2023-11-18T00:58:19;0.50;99.90
14349;DHT22;7258;50.376;8.742;2023-11-18T01:00:22;0.60;99.90
14349;DHT22;7258;50.376;8.742;2023-11-18T01:02:27;0.60;99.90
14349;DHT22;7258;50.376;8.742;2023-11-18T01:04:30;0.70;99.90
14349;DHT22;7258;50.376;8.742;2023-11-18T01:06:36;0.70;99.90
14349;DHT22;7258;50.376;8.742;2023-11-18T01:08:38;0.80;99.90
14349;DHT22;7258;50.376;8.742;2023-11-18T01:10:41;0.90;99.90
14349;DHT22;7258;50.376;8.742;2023-11-18T01:12:43;0.90;99.90
14349;DHT22;7258;50.376;8.742;2023-11-18T01:14:47;1.00;99.90
14349;DHT22;7258;50.376;8.742;2023-11-18T01:16:49;1.00;99.90
14349;DHT22;7258;50.376;8.742;2023-11-18T01:18:52;1.10;99.90
14349;DHT22;7258;50.376;8.742;2023-11-18T01:20:55;1.10;99.90
14349;DHT22;7258;50.376;8.742;2023-11-18T01:23:02;1.20;99.90
14349;DHT22;7258;50.376;8.742;2023-11-18T01:25:06;1.20;99.90
14349;DHT22;7258;50.376;8.742;2023-11-18T01:27:10;1.30;99.90
14349;DHT22;7258;50.376;8.742;2023-11-18T01:29:13;1.30;99.90
14349;DHT22;7258;50.376;8.742;2023-11-18T01:31:15;1.40;99.90
14349;DHT22;7258;50.376;8.742;2023-11-18T01:33:19;1.40;99.90
14349;DHT22;7258;50.376;8.742;2023-11-18T01:35:22;1.40;99.90
14349;DHT22;7258;50.376;8.742;2023-11-18T01:37:28;1.50;99.90
14349;DHT22;7258;50.376;8.742;2023-11-18T01:39:32;1.50;99.90
14349;DHT22;7258;50.376;8.742;2023-11-18T01:41:34;1.40;99.90
14349;DHT22;7258;50.376;8.742;2023-11-18T01:43:37;1.50;99.90
14349;DHT22;7258;50.376;8.742;2023-11-18T01:45:41;1.50;99.90
14349;DHT22;7258;50.376;8.742;2023-11-18T01:47:44;1.50;99.90
14349;DHT22;7258;50.376;8.742;2023-11-18T01:49:49;1.60;99.90
14349;DHT22;7258;50.376;8.742;2023-11-18T01:51:52;1.60;99.90
14349;DHT22;7258;50.376;8.742;2023-11-18T01:53:56;1.60;99.90
14349;DHT22;7258;50.376;8.742;2023-11-18T01:56:07;1.60;99.90
14349;DHT22;7258;50.376;8.742;2023-11-18T01:58:10;1.60;99.90
14349;DHT22;7258;50.376;8.742;2023-11-18T02:00:14;1.60;99.90
14349;DHT22;7258;50.376;8.742;2023-11-18T02:02:19;1.60;99.90
14349;DHT22;7258;50.376;8.742;2023-11-18T02:04:23;1.60;99.90
14349;DHT22;7258;50.376;8.742;2023-11-18T02:06:26;1.60;99.90
14349;DHT22;7258;50.376;8.742;2023-11-18T02:08:29;1.60;99.90
14349;DHT22;7258;50.376;8.742;2023-11-18T02:10:33;1.70;99.90
14349;DHT22;7258;50.376;8.742;2023-11-18T02:12:44;1.70;99.90
14349;DHT22;7258;50.376;8.742;2023-11-18T02:14:50;1.70;99.90
14349;DHT22;7258;50.376;8.742;2023-11-18T02:16:58;1.70;99.90
14349;DHT22;7258;50.376;8.742;2023-11-18T02:19:02;1.70;99.90
14349;DHT22;7258;50.376;8.742;2023-11-18T02:21:07;1.70;99.90
14349;DHT22;7258;50.376;8.742;2023-11-18T02:23:11;1.70;99.90
14349;DHT22;7258;50.376;8.742;2023-11-18T02:25:16;1.70;99.90
14349;DHT22;7258;50.376;8.742;2023-11-18T02:27:21;1.70;99.90
14349;DHT22;7258;50.376;8.742;2023-11-18T02:29:27;1.70;99.90
14349;DHT22;7258;50.376;8.742;2023-11-18T02:31:34;1.60;99.90
14349;DHT22;7258;50.376;8.742;2023-11-18T02:33:43;1.60;99.90
14349;DHT22;7258;50.376;8.742;2023-11-18T02:35:53;1.50;99.90
14349;DHT22;7258;50.376;8.742;2023-11-18T02:37:59;1.50;99.90
14349;DHT22;7258;50.376;8.742;2023-11-18T02:40:05;1.50;99.90
14349;DHT22;7258;50.376;8.742;2023-11-18T02:42:10;1.50;99.90
14349;DHT22;7258;50.376;8.742;2023-11-18T02:44:17;1.50;99.90
14349;DHT22;7258;50.376;8.742;2023-11-18T02:46:22;1.50;99.90
14349;DHT22;7258;50.376;8.742;2023-11-18T02:48:29;1.50;99.90
14349;DHT22;7258;50.376;8.742;2023-11-18T02:50:34;1.50;99.90
14349;DHT22;7258;50.376;8.742;2023-11-18T02:52:37;1.40;99.90
14349;DHT22;7258;50.376;8.742;2023-11-18T02:54:40;1.40;99.90
14349;DHT22;7258;50.376;8.742;2023-11-18T02:56:43;1.40;99.90
14349;DHT22;7258;50.376;8.742;2023-11-18T02:58:46;1.30;99.90
14349;DHT22;7258;50.376;8.742;2023-11-18T03:00:50;1.40;99.90
14349;DHT22;7258;50.376;8.742;2023-11-18T03:02:53;1.40;99.90
14349;DHT22;7258;50.376;8.742;2023-11-18T03:04:55;1.40;99.90
14349;DHT22;7258;50.376;8.742;2023-11-18T03:06:58;1.40;99.90
14349;DHT22;7258;50.376;8.742;2023-11-18T03:09:01;1.40;99.90
14349;DHT22;7258;50.376;8.742;2023-11-18T03:11:04;1.40;99.90
14349;DHT22;7258;50.376;8.742;2023-11-18T03:13:10;1.40;99.90
14349;DHT22;7258;50.376;8.742;2023-11-18T03:15:14;1.40;99.90
14349;DHT22;7258;50.376;8.742;2023-11-18T03:17:20;1.30;99.90
14349;DHT22;7258;50.376;8.742;2023-11-18T03:19:23;1.30;99.90
14349;DHT22;7258;50.376;8.742;2023-11-18T03:21:26;1.40;99.90
14349;DHT22;7258;50.376;8.742;2023-11-18T03:23:28;1.30;99.90
14349;DHT22;7258;50.376;8.742;2023-11-18T03:25:31;1.30;99.90
14349;DHT22;7258;50.376;8.742;2023-11-18T03:27:34;1.20;99.90
14349;DHT22;7258;50.376;8.742;2023-11-18T03:29:37;1.20;99.90
14349;DHT22;7258;50.376;8.742;2023-11-18T03:31:41;1.10;99.90
14349;DHT22;7258;50.376;8.742;2023-11-18T03:33:47;1.10;99.90
14349;DHT22;7258;50.376;8.742;2023-11-18T03:35:51;1.10;99.90
14349;DHT22;7258;50.376;8.742;2023-11-18T03:37:54;1.10;99.90
14349;DHT22;7258;50.376;8.742;2023-11-18T03:39:56;1.10;99.90
14349;DHT22;7258;50.376;8.742;2023-11-18T03:41:59;1.20;99.90
14349;DHT22;7258;50.376;8.742;2023-11-18T03:44:02;1.20;99.90
14349;DHT22;7258;50.376;8.742;2023-11-18T03:46:06;1.20;99.90
14349;DHT22;7258;50.376;8.742;2023-11-18T03:48:09;1.20;99.90
14349;DHT22;7258;50.376;8.742;2023-11-18T03:50:17;1.30;99.90
14349;DHT22;7258;50.376;8.742;2023-11-18T03:52:19;1.30;99.90
14349;DHT22;7258;50.376;8.742;2023-11-18T03:54:21;1.30;99.90
14349;DHT22;7258;50.376;8.742;2023-11-18T03:56:24;1.30;99.90
14349;DHT22;7258;50.376;8.742;2023-11-18T03:58:28;1.20;99.90
14349;DHT22;7258;50.376;8.742;2023-11-18T04:00:31;1.20;99.90
14349;DHT22;7258;50.376;8.742;2023-11-18T04:02:34;1.10;99.90
14349;DHT22;7258;50.376;8.742;2023-11-18T04:04:37;1.00;99.90
14349;DHT22;7258;50.376;8.742;2023-11-18T04:06:42;1.00;99.90
14349;DHT22;7258;50.376;8.742;2023-11-18T04:08:45;1.00;99.90
14349;DHT22;7258;50.376;8.742;2023-11-18T04:10:48;1.10;99.90
14349;DHT22;7258;50.376;8.742;2023-11-18T04:12:51;1.10;99.90
14349;DHT22;7258;50.376;8.742;2023-11-18T04:14:53;1.10;99.90
14349;DHT22;7258;50.376;8.742;2023-11-18T04:16:56;1.10;99.90
14349;DHT22;7258;50.376;8.742;2023-11-18T04:18:59;1.10;99.90
14349;DHT22;7258;50.376;8.742;2023-11-18T04:21:01;1.20;99.90
14349;DHT22;7258;50.376;8.742;2023-11-18T04:23:05;1.20;99.90
14349;DHT22;7258;50.376;8.742;2023-11-18T04:25:08;1.20;99.90
14349;DHT22;7258;50.376;8.742;2023-11-18T04:27:11;1.20;99.90
14349;DHT22;7258;50.376;8.742;2023-11-18T04:29:13;1.20;99.90
14349;DHT22;7258;50.376;8.742;2023-11-18T04:31:16;1.20;99.90
14349;DHT22;7258;50.376;8.742;2023-11-18T04:33:19;1.20;99.90
14349;DHT22;7258;50.376;8.742;2023-11-18T04:35:22;1.20;99.90
14349;DHT22;7258;50.376;8.742;2023-11-18T04:37:26;1.10;99.90
14349;DHT22;7258;50.376;8.742;2023-11-18T04:39:31;1.10;99.90
14349;DHT22;7258;50.376;8.742;2023-11-18T04:41:34;1.10;99.90
14349;DHT22;7258;50.376;8.742;2023-11-18T04:43:38;1.10;99.90
14349;DHT22;7258;50.376;8.742;2023-11-18T04:45:47;1.10;99.90
14349;DHT22;7258;50.376;8.742;2023-11-18T04:47:50;1.20;99.90
14349;DHT22;7258;50.376;8.742;2023-11-18T04:49:53;1.20;99.90
14349;DHT22;7258;50.376;8.742;2023-11-18T04:51:56;1.20;99.90
14349;DHT22;7258;50.376;8.742;2023-11-18T04:54:00;1.30;99.90
14349;DHT22;7258;50.376;8.742;2023-11-18T04:56:07;1.30;99.90
14349;DHT22;7258;50.376;8.742;2023-11-18T04:58:11;1.30;99.90
14349;DHT22;7258;50.376;8.742;2023-11-18T05:00:15;1.40;99.90
14349;DHT22;7258;50.376;8.742;2023-11-18T05:02:19;1.40;99.90
14349;DHT22;7258;50.376;8.742;2023-11-18T05:04:22;1.40;99.90
14349;DHT22;7258;50.376;8.742;2023-11-18T05:06:25;1.40;99.90
14349;DHT22;7258;50.376;8.742;2023-11-18T05:08:27;1.40;99.90
14349;DHT22;7258;50.376;8.742;2023-11-18T05:10:30;1.40;99.90
14349;DHT22;7258;50.376;8.742;2023-11-18T05:12:34;1.40;99.90
14349;DHT22;7258;50.376;8.742;2023-11-18T05:14:37;1.40;99.90
14349;DHT22;7258;50.376;8.742;2023-11-18T05:16:41;1.40;99.90
14349;DHT22;7258;50.376;8.742;2023-11-18T05:18:43;1.40;99.90
14349;DHT22;7258;50.376;8.742;2023-11-18T05:20:46;1.40;99.90
14349;DHT22;7258;50.376;8.742;2023-11-18T05:22:49;1.40;99.90
14349;DHT22;7258;50.376;8.742;2023-11-18T05:24:52;1.50;99.90
14349;DHT22;7258;50.376;8.742;2023-11-18T05:26:54;1.50;99.90
14349;DHT22;7258;50.376;8.742;2023-11-18T05:28:58;1.50;99.90
14349;DHT22;7258;50.376;8.742;2023-11-18T05:31:02;1.50;99.90
14349;DHT22;7258;50.376;8.742;2023-11-18T05:33:06;1.50;99.90
14349;DHT22;7258;50.376;8.742;2023-11-18T05:35:10;1.60;99.90
14349;DHT22;7258;50.376;8.742;2023-11-18T05:37:13;1.60;99.90
14349;DHT22;7258;50.376;8.742;2023-11-18T05:39:19;1.60;99.90
14349;DHT22;7258;50.376;8.742;2023-11-18T05:41:23;1.60;99.90
14349;DHT22;7258;50.376;8.742;2023-11-18T05:43:30;1.60;99.90
14349;DHT22;7258;50.376;8.742;2023-11-18T05:45:40;1.50;99.90
14349;DHT22;7258;50.376;8.742;2023-11-18T05:48:03;1.50;99.90
14349;DHT22;7258;50.376;8.742;2023-11-18T05:50:06;1.50;99.90
14349;DHT22;7258;50.376;8.742;2023-11-18T05:52:12;1.50;99.90
14349;DHT22;7258;50.376;8.742;2023-11-18T05:54:15;1.50;99.90
14349;DHT22;7258;50.376;8.742;2023-11-18T05:56:19;1.50;99.90
14349;DHT22;7258;50.376;8.742;2023-11-18T05:58:21;1.50;99.90
14349;DHT22;7258;50.376;8.742;2023-11-18T06:00:24;1.50;99.90
14349;DHT22;7258;50.376;8.742;2023-11-18T06:02:38;1.50;99.90
14349;DHT22;7258;50.376;8.742;2023-11-18T06:04:41;1.60;99.90
14349;DHT22;7258;50.376;8.742;2023-11-18T06:06:44;1.50;99.90
14349;DHT22;7258;50.376;8.742;2023-11-18T06:08:49;1.50;99.90
14349;DHT22;7258;50.376;8.742;2023-11-18T06:10:52;1.50;99.90
14349;DHT22;7258;50.376;8.742;2023-11-18T06:12:58;1.60;99.90
14349;DHT22;7258;50.376;8.742;2023-11-18T06:15:01;1.60;99.90
14349;DHT22;7258;50.376;8.742;2023-11-18T06:17:03;1.60;99.90
14349;DHT22;7258;50.376;8.742;2023-11-18T06:19:10;1.60;99.90
14349;DHT22;7258;50.376;8.742;2023-11-18T06:21:13;1.60;99.90
14349;DHT22;7258;50.376;8.742;2023-11-18T06:23:16;1.60;99.90
14349;DHT22;7258;50.376;8.742;2023-11-18T06:25:20;1.60;99.90
14349;DHT22;7258;50.376;8.742;2023-11-18T06:27:24;1.60;99.90
14349;DHT22;7258;50.376;8.742;2023-11-18T06:29:27;1.60;99.90
14349;DHT22;7258;50.376;8.742;2023-11-18T06:31:31;1.60;99.90
14349;DHT22;7258;50.376;8.742;2023-11-18T06:33:38;1.60;99.90
14349;DHT22;7258;50.376;8.742;2023-11-18T06:35:43;1.60;99.90
14349;DHT22;7258;50.376;8.742;2023-11-18T06:37:46;1.60;99.90
14349;DHT22;7258;50.376;8.742;2023-11-18T06:39:49;1.70;99.90
14349;DHT22;7258;50.376;8.742;2023-11-18T06:41:52;1.70;99.90
14349;DHT22;7258;50.376;8.742;2023-11-18T06:43:54;1.70;99.90
14349;DHT22;7258;50.376;8.742;2023-11-18T06:46:11;1.70;99.90
14349;DHT22;7258;50.376;8.742;2023-11-18T06:48:15;1.70;99.90
14349;DHT22;7258;50.376;8.742;2023-11-18T06:50:21;1.70;99.90
14349;DHT22;7258;50.376;8.742;2023-11-18T06:52:27;1.70;99.90
14349;DHT22;7258;50.376;8.742;2023-11-18T06:54:29;1.70;99.90
14349;DHT22;7258;50.376;8.742;2023-11-18T06:56:36;1.70;99.90
14349;DHT22;7258;50.376;8.742;2023-11-18T06:58:39;1.80;99.90
14349;DHT22;7258;50.376;8.742;2023-11-18T07:00:42;1.80;99.90
14349;DHT22;7258;50.376;8.742;2023-11-18T07:02:45;1.90;99.90
14349;DHT22;7258;50.376;8.742;2023-11-18T07:04:48;1.80;99.90
14349;DHT22;7258;50.376;8.742;2023-11-18T07:06:52;1.90;99.90
14349;DHT22;7258;50.376;8.742;2023-11-18T07:08:56;1.90;99.90
14349;DHT22;7258;50.376;8.742;2023-11-18T07:11:02;1.90;99.90
14349;DHT22;7258;50.376;8.742;2023-11-18T07:13:05;1.90;99.90
14349;DHT22;7258;50.376;8.742;2023-11-18T07:15:10;1.90;99.90
14349;DHT22;7258;50.376;8.742;2023-11-18T07:17:12;1.80;99.90
14349;DHT22;7258;50.376;8.742;2023-11-18T07:19:15;1.80;99.90
14349;DHT22;7258;50.376;8.742;2023-11-18T07:21:22;1.80;99.90
14349;DHT22;7258;50.376;8.742;2023-11-18T07:23:25;1.90;99.90
14349;DHT22;7258;50.376;8.742;2023-11-18T07:25:29;1.90;99.90
14349;DHT22;7258;50.376;8.742;2023-11-18T07:27:33;2.00;99.90
14349;DHT22;7258;50.376;8.742;2023-11-18T07:29:37;2.00;99.90
14349;DHT22;7258;50.376;8.742;2023-11-18T07:31:40;1.90;99.90
14349;DHT22;7258;50.376;8.742;2023-11-18T07:33:43;1.90;99.90
14349;DHT22;7258;50.376;8.742;2023-11-18T07:35:50;1.90;99.90
14349;DHT22;7258;50.376;8.742;2023-11-18T07:37:54;1.90;99.90
14349;DHT22;7258;50.376;8.742;2023-11-18T07:39:57;2.00;99.90
14349;DHT22;7258;50.376;8.742;2023-11-18T07:42:03;2.00;99.90
14349;DHT22;7258;50.376;8.742;2023-11-18T07:44:07;2.00;99.90
14349;DHT22;7258;50.376;8.742;2023-11-18T07:46:12;2.00;99.90
14349;DHT22;7258;50.376;8.742;2023-11-18T07:48:15;2.00;99.90
14349;DHT22;7258;50.376;8.742;2023-11-18T07:50:19;2.00;99.90
14349;DHT22;7258;50.376;8.742;2023-11-18T07:52:22;2.10;99.90
14349;DHT22;7258;50.376;8.742;2023-11-18T07:54:25;2.20;99.90
14349;DHT22;7258;50.376;8.742;2023-11-18T07:56:28;2.20;99.90
14349;DHT22;7258;50.376;8.742;2023-11-18T07:58:35;2.20;99.90
14349;DHT22;7258;50.376;8.742;2023-11-18T08:00:39;2.30;99.90
14349;DHT22;7258;50.376;8.742;2023-11-18T08:02:42;2.30;99.90
14349;DHT22;7258;50.376;8.742;2023-11-18T08:04:46;2.30;99.90
14349;DHT22;7258;50.376;8.742;2023-11-18T08:06:49;2.40;99.90
14349;DHT22;7258;50.376;8.742;2023-11-18T08:08:53;2.40;99.90
14349;DHT22;7258;50.376;8.742;2023-11-18T08:10:55;2.50;99.90
14349;DHT22;7258;50.376;8.742;2023-11-18T08:12:59;2.50;99.90
14349;DHT22;7258;50.376;8.742;2023-11-18T08:15:05;2.50;99.90
14349;DHT22;7258;50.376;8.742;2023-11-18T08:17:10;2.50;99.90
14349;DHT22;7258;50.376;8.742;2023-11-18T08:19:15;2.50;99.90
14349;DHT22;7258;50.376;8.742;2023-11-18T08:21:19;2.60;99.90
14349;DHT22;7258;50.376;8.742;2023-11-18T08:23:22;2.70;99.90
14349;DHT22;7258;50.376;8.742;2023-11-18T08:25:25;2.70;99.90
14349;DHT22;7258;50.376;8.742;2023-11-18T08:27:28;2.70;99.90
14349;DHT22;7258;50.376;8.742;2023-11-18T08:29:32;2.80;99.90
14349;DHT22;7258;50.376;8.742;2023-11-18T08:31:36;2.80;99.90
14349;DHT22;7258;50.376;8.742;2023-11-18T08:33:42;2.80;99.90
14349;DHT22;7258;50.376;8.742;2023-11-18T08:35:44;2.80;99.90
14349;DHT22;7258;50.376;8.742;2023-11-18T08:37:48;2.90;99.90
14349;DHT22;7258;50.376;8.742;2023-11-18T08:39:51;2.90;99.90
14349;DHT22;7258;50.376;8.742;2023-11-18T08:41:54;3.00;99.90
14349;DHT22;7258;50.376;8.742;2023-11-18T08:43:57;3.00;99.90
14349;DHT22;7258;50.376;8.742;2023-11-18T08:46:18;3.10;99.90
14349;DHT22;7258;50.376;8.742;2023-11-18T08:48:23;3.10;99.90
14349;DHT22;7258;50.376;8.742;2023-11-18T08:50:28;3.10;99.90
14349;DHT22;7258;50.376;8.742;2023-11-18T08:52:30;3.10;99.90
14349;DHT22;7258;50.376;8.742;2023-11-18T08:54:33;3.20;99.90
14349;DHT22;7258;50.376;8.742;2023-11-18T08:56:39;3.10;99.90
14349;DHT22;7258;50.376;8.742;2023-11-18T08:58:43;3.20;99.90
14349;DHT22;7258;50.376;8.742;2023-11-18T09:00:49;3.20;99.90
14349;DHT22;7258;50.376;8.742;2023-11-18T09:02:54;3.20;99.90
14349;DHT22;7258;50.376;8.742;2023-11-18T09:05:05;3.20;99.90
14349;DHT22;7258;50.376;8.742;2023-11-18T09:07:14;3.30;99.90
14349;DHT22;7258;50.376;8.742;2023-11-18T09:09:17;3.30;99.90
14349;DHT22;7258;50.376;8.742;2023-11-18T09:11:27;3.30;99.90
14349;DHT22;7258;50.376;8.742;2023-11-18T09:13:34;3.30;99.90
14349;DHT22;7258;50.376;8.742;2023-11-18T09:15:36;3.30;99.90
14349;DHT22;7258;50.376;8.742;2023-11-18T09:17:39;3.40;99.90
14349;DHT22;7258;50.376;8.742;2023-11-18T09:19:46;3.40;99.90
14349;DHT22;7258;50.376;8.742;2023-11-18T09:21:49;3.40;99.90
14349;DHT22;7258;50.376;8.742;2023-11-18T09:23:53;3.50;99.90
14349;DHT22;7258;50.376;8.742;2023-11-18T09:25:58;3.50;99.90
14349;DHT22;7258;50.376;8.742;2023-11-18T09:28:00;3.50;99.90
14349;DHT22;7258;50.376;8.742;2023-11-18T09:30:03;3.50;99.90
14349;DHT22;7258;50.376;8.742;2023-11-18T09:32:15;3.50;99.90
14349;DHT22;7258;50.376;8.742;2023-11-18T09:34:18;3.60;99.90
14349;DHT22;7258;50.376;8.742;2023-11-18T09:36:28;3.60;99.90
14349;DHT22;7258;50.376;8.742;2023-11-18T09:38:33;3.70;99.90
14349;DHT22;7258;50.376;8.742;2023-11-18T09:40:38;3.70;99.90
14349;DHT22;7258;50.376;8.742;2023-11-18T09:42:44;3.70;99.90
14349;DHT22;7258;50.376;8.742;2023-11-18T09:44:47;3.70;99.90
14349;DHT22;7258;50.376;8.742;2023-11-18T09:46:57;3.70;99.90
14349;DHT22;7258;50.376;8.742;2023-11-18T09:49:15;3.80;99.90
14349;DHT22;7258;50.376;8.742;2023-11-18T09:51:21;3.80;99.90
14349;DHT22;7258;50.376;8.742;2023-11-18T09:53:26;3.80;99.90
14349;DHT22;7258;50.376;8.742;2023-11-18T09:55:38;3.90;99.90
14349;DHT22;7258;50.376;8.742;2023-11-18T09:57:51;3.90;99.90
14349;DHT22;7258;50.376;8.742;2023-11-18T10:00:01;4.00;99.90
14349;DHT22;7258;50.376;8.742;2023-11-18T10:02:22;4.00;99.90
14349;DHT22;7258;50.376;8.742;2023-11-18T10:04:28;4.00;99.90
14349;DHT22;7258;50.376;8.742;2023-11-18T10:06:35;4.10;99.90
14349;DHT22;7258;50.376;8.742;2023-11-18T10:08:37;4.10;99.90
14349;DHT22;7258;50.376;8.742;2023-11-18T10:10:45;4.10;99.90
14349;DHT22;7258;50.376;8.742;2023-11-18T10:12:48;4.10;99.90
14349;DHT22;7258;50.376;8.742;2023-11-18T10:14:53;4.20;99.90
14349;DHT22;7258;50.376;8.742;2023-11-18T10:16:57;4.20;99.90
14349;DHT22;7258;50.376;8.742;2023-11-18T10:18:59;4.20;99.90
14349;DHT22;7258;50.376;8.742;2023-11-18T10:21:10;4.30;99.90
14349;DHT22;7258;50.376;8.742;2023-11-18T10:23:14;4.30;99.90
14349;DHT22;7258;50.376;8.742;2023-11-18T10:25:24;4.40;99.90
14349;DHT22;7258;50.376;8.742;2023-11-18T10:27:28;4.40;99.90
14349;DHT22;7258;50.376;8.742;2023-11-18T10:29:31;4.40;99.90
14349;DHT22;7258;50.376;8.742;2023-11-18T10:31:33;4.50;99.90
14349;DHT22;7258;50.376;8.742;2023-11-18T10:33:38;4.50;99.90
14349;DHT22;7258;50.376;8.742;2023-11-18T10:35:49;4.50;99.90
14349;DHT22;7258;50.376;8.742;2023-11-18T10:37:52;4.50;99.90
14349;DHT22;7258;50.376;8.742;2023-11-18T10:39:55;4.50;99.90
14349;DHT22;7258;50.376;8.742;2023-11-18T10:41:59;4.60;99.90
14349;DHT22;7258;50.376;8.742;2023-11-18T10:44:07;4.60;99.90
14349;DHT22;7258;50.376;8.742;2023-11-18T10:46:12;4.60;99.90
14349;DHT22;7258;50.376;8.742;2023-11-18T10:48:16;4.60;99.90
14349;DHT22;7258;50.376;8.742;2023-11-18T10:50:21;4.70;99.90
14349;DHT22;7258;50.376;8.742;2023-11-18T10:52:25;4.70;99.90
14349;DHT22;7258;50.376;8.742;2023-11-18T10:54:32;4.70;99.90
14349;DHT22;7258;50.376;8.742;2023-11-18T10:56:35;4.70;99.90
14349;DHT22;7258;50.376;8.742;2023-11-18T10:58:39;4.80;99.90
14349;DHT22;7258;50.376;8.742;2023-11-18T11:00:50;4.80;99.90
14349;DHT22;7258;50.376;8.742;2023-11-18T11:02:58;4.80;99.90
14349;DHT22;7258;50.376;8.742;2023-11-18T11:05:01;4.90;99.90
14349;DHT22;7258;50.376;8.742;2023-11-18T11:07:04;4.90;99.90
14349;DHT22;7258;50.376;8.742;2023-11-18T11:09:08;4.90;99.90
14349;DHT22;7258;50.376;8.742;2023-11-18T11:11:20;4.90;99.90
14349;DHT22;7258;50.376;8.742;2023-11-18T11:13:25;4.90;99.90
14349;DHT22;7258;50.376;8.742;2023-11-18T11:15:29;5.00;99.90
14349;DHT22;7258;50.376;8.742;2023-11-18T11:17:52;5.00;99.90
14349;DHT22;7258;50.376;8.742;2023-11-18T11:20:03;5.00;99.90
14349;DHT22;7258;50.376;8.742;2023-11-18T11:22:24;5.00;99.90
14349;DHT22;7258;50.376;8.742;2023-11-18T11:24:39;5.00;99.90
14349;DHT22;7258;50.376;8.742;2023-11-18T11:29:22;5.00;99.90
14349;DHT22;7258;50.376;8.742;2023-11-18T11:31:33;5.00;99.90
14349;DHT22;7258;50.376;8.742;2023-11-18T11:33:43;5.00;99.90
14349;DHT22;7258;50.376;8.742;2023-11-18T11:35:52;5.00;99.90
14349;DHT22;7258;50.376;8.742;2023-11-18T11:37:59;5.00;99.90
14349;DHT22;7258;50.376;8.742;2023-11-18T11:40:12;5.00;99.90
14349;DHT22;7258;50.376;8.742;2023-11-18T11:42:23;5.10;99.90
14349;DHT22;7258;50.376;8.742;2023-11-18T11:44:27;5.10;99.90
14349;DHT22;7258;50.376;8.742;2023-11-18T11:46:33;5.10;99.90
14349;DHT22;7258;50.376;8.742;2023-11-18T11:48:40;5.10;99.90
14349;DHT22;7258;50.376;8.742;2023-11-18T11:51:02;5.20;99.90
14349;DHT22;7258;50.376;8.742;2023-11-18T11:53:12;5.20;99.90
14349;DHT22;7258;50.376;8.742;2023-11-18T11:55:26;5.20;99.90
14349;DHT22;7258;50.376;8.742;2023-11-18T11:57:32;5.30;99.90
14349;DHT22;7258;50.376;8.742;2023-11-18T11:59:55;5.30;99.90
14349;DHT22;7258;50.376;8.742;2023-11-18T12:01:58;5.30;99.90
14349;DHT22;7258;50.376;8.742;2023-11-18T12:04:05;5.30;99.90
14349;DHT22;7258;50.376;8.742;2023-11-18T12:06:12;5.40;99.90
14349;DHT22;7258;50.376;8.742;2023-11-18T12:08:17;5.40;99.90
14349;DHT22;7258;50.376;8.742;2023-11-18T12:10:21;5.40;99.90
14349;DHT22;7258;50.376;8.742;2023-11-18T12:12:25;5.40;99.90
14349;DHT22;7258;50.376;8.742;2023-11-18T12:14:28;5.40;99.90
14349;DHT22;7258;50.376;8.742;2023-11-18T12:16:57;5.40;99.90
14349;DHT22;7258;50.376;8.742;2023-11-18T12:19:30;5.40;99.90
14349;DHT22;7258;50.376;8.742;2023-11-18T12:21:55;5.40;99.90
14349;DHT22;7258;50.376;8.742;2023-11-18T12:24:15;5.40;99.90
14349;DHT22;7258;50.376;8.742;2023-11-18T12:26:38;5.40;99.90
14349;DHT22;7258;50.376;8.742;2023-11-18T12:28:41;5.40;99.90
14349;DHT22;7258;50.376;8.742;2023-11-18T12:30:48;5.40;99.90
14349;DHT22;7258;50.376;8.742;2023-11-18T12:33:00;5.40;99.90
14349;DHT22;7258;50.376;8.742;2023-11-18T12:35:08;5.50;99.90
14349;DHT22;7258;50.376;8.742;2023-11-18T12:37:53;5.50;99.90
14349;DHT22;7258;50.376;8.742;2023-11-18T12:40:30;5.50;99.90
14349;DHT22;7258;50.376;8.742;2023-11-18T12:42:58;5.60;99.90
14349;DHT22;7258;50.376;8.742;2023-11-18T12:45:23;5.60;99.90
14349;DHT22;7258;50.376;8.742;2023-11-18T12:47:31;5.60;99.90
14349;DHT22;7258;50.376;8.742;2023-11-18T12:49:38;5.60;99.90
14349;DHT22;7258;50.376;8.742;2023-11-18T12:51:44;5.60;99.90
14349;DHT22;7258;50.376;8.742;2023-11-18T12:53:48;5.60;99.90
14349;DHT22;7258;50.376;8.742;2023-11-18T12:55:53;5.50;99.90
14349;DHT22;7258;50.376;8.742;2023-11-18T12:57:59;5.60;99.90
14349;DHT22;7258;50.376;8.742;2023-11-18T13:00:02;5.60;99.90
14349;DHT22;7258;50.376;8.742;2023-11-18T13:02:07;5.60;99.90
14349;DHT22;7258;50.376;8.742;2023-11-18T13:04:14;5.50;99.90
14349;DHT22;7258;50.376;8.742;2023-11-18T13:06:21;5.60;99.90
14349;DHT22;7258;50.376;8.742;2023-11-18T13:08:31;5.50;99.90
14349;DHT22;7258;50.376;8.742;2023-11-18T13:10:34;5.50;99.90
14349;DHT22;7258;50.376;8.742;2023-11-18T13:12:39;5.50;99.90
14349;DHT22;7258;50.376;8.742;2023-11-18T13:14:42;5.50;99.90
14349;DHT22;7258;50.376;8.742;2023-11-18T13:16:47;5.50;99.90
14349;DHT22;7258;50.376;8.742;2023-11-18T13:18:51;5.60;99.90
14349;DHT22;7258;50.376;8.742;2023-11-18T13:20:57;5.60;99.90
14349;DHT22;7258;50.376;8.742;2023-11-18T13:22:59;5.60;99.90
14349;DHT22;7258;50.376;8.742;2023-11-18T13:25:04;5.60;99.90
14349;DHT22;7258;50.376;8.742;2023-11-18T13:27:09;5.60;99.90
14349;DHT22;7258;50.376;8.742;2023-11-18T13:29:12;5.60;99.90
14349;DHT22;7258;50.376;8.742;2023-11-18T13:31:19;5.70;99.90
14349;DHT22;7258;50.376;8.742;2023-11-18T13:33:23;5.70;99.90
14349;DHT22;7258;50.376;8.742;2023-11-18T13:35:26;5.70;99.90
14349;DHT22;7258;50.376;8.742;2023-11-18T13:37:29;5.70;99.90
14349;DHT22;7258;50.376;8.742;2023-11-18T13:39:32;5.70;99.90
14349;DHT22;7258;50.376;8.742;2023-11-18T13:41:36;5.80;99.90